sensor_id;sensor_type;location;lat;lon;timestamp;temperature;humidity
1570;DHT22;778;50.120;8.698;2022-12-20T00:01:54;2.80;99.90
1570;DHT22;778;50.120;8.698;2022-12-20T00:04:23;2.80;99.90
1570;DHT22;778;50.120;8.698;2022-12-20T00:06:51;2.80;99.90
1570;DHT22;778;50.120;8.698;2022-12-20T00:09:19;2.80;99.90
1570;DHT22;778;50.120;8.698;2022-12-20T00:11:48;2.80;99.90
1570;DHT22;778;50.120;8.698;2022-12-20T00:14:17;2.80;99.90
1570;DHT22;778;50.120;8.698;2022-12-20T00:16:46;2.70;99.90
1570;DHT22;778;50.120;8.698;2022-12-20T00:19:14;2.70;99.90
1570;DHT22;778;50.120;8.698;2022-12-20T00:21:43;2.70;99.90
1570;DHT22;778;50.120;8.698;2022-12-20T00:24:11;2.70;99.90
1570;DHT22;778;50.120;8.698;2022-12-20T00:26:39;2.70;99.90
1570;DHT22;778;50.120;8.698;2022-12-20T00:29:08;2.70;99.90
1570;DHT22;778;50.120;8.698;2022-12-20T00:31:38;2.70;99.90
1570;DHT22;778;50.120;8.698;2022-12-20T00:34:08;2.70;99.90
1570;DHT22;778;50.120;8.698;2022-12-20T00:36:38;2.70;99.90
1570;DHT22;778;50.120;8.698;2022-12-20T00:39:08;2.70;99.90
1570;DHT22;778;50.120;8.698;2022-12-20T00:41:36;2.70;99.90
1570;DHT22;778;50.120;8.698;2022-12-20T00:44:05;2.70;99.90
1570;DHT22;778;50.120;8.698;2022-12-20T00:46:33;2.70;99.90
1570;DHT22;778;50.120;8.698;2022-12-20T00:49:03;2.70;99.90
1570;DHT22;778;50.120;8.698;2022-12-20T00:51:33;2.70;99.90
1570;DHT22;778;50.120;8.698;2022-12-20T00:54:01;2.70;99.90
1570;DHT22;778;50.120;8.698;2022-12-20T00:56:30;2.70;99.90
1570;DHT22;778;50.120;8.698;2022-12-20T00:58:58;2.70;99.90
1570;DHT22;778;50.120;8.698;2022-12-20T01:01:29;2.80;99.90
1570;DHT22;778;50.120;8.698;2022-12-20T01:03:58;2.80;99.90
1570;DHT22;778;50.120;8.698;2022-12-20T01:06:29;2.80;99.90
1570;DHT22;778;50.120;8.698;2022-12-20T01:08:58;2.80;99.90
1570;DHT22;778;50.120;8.698;2022-12-20T01:11:29;2.80;99.90
1570;DHT22;778;50.120;8.698;2022-12-20T01:14:03;2.80;99.90
1570;DHT22;778;50.120;8.698;2022-12-20T01:16:35;2.80;99.90
1570;DHT22;778;50.120;8.698;2022-12-20T01:19:06;2.80;99.90
1570;DHT22;778;50.120;8.698;2022-12-20T01:21:37;2.80;99.90
1570;DHT22;778;50.120;8.698;2022-12-20T01:24:05;2.80;99.90
1570;DHT22;778;50.120;8.698;2022-12-20T01:26:34;2.80;99.90
1570;DHT22;778;50.120;8.698;2022-12-20T01:29:02;2.80;99.90
1570;DHT22;778;50.120;8.698;2022-12-20T01:31:31;2.90;99.90
1570;DHT22;778;50.120;8.698;2022-12-20T01:34:00;2.80;99.90
1570;DHT22;778;50.120;8.698;2022-12-20T01:36:30;2.90;99.90
1570;DHT22;778;50.120;8.698;2022-12-20T01:39:02;2.90;99.90
1570;DHT22;778;50.120;8.698;2022-12-20T01:41:33;2.90;99.90
1570;DHT22;778;50.120;8.698;2022-12-20T01:44:04;2.90;99.90
1570;DHT22;778;50.120;8.698;2022-12-20T01:46:34;2.90;99.90
1570;DHT22;778;50.120;8.698;2022-12-20T01:49:06;2.90;99.90
1570;DHT22;778;50.120;8.698;2022-12-20T01:51:40;2.90;99.90
1570;DHT22;778;50.120;8.698;2022-12-20T01:54:15;2.90;99.90
1570;DHT22;778;50.120;8.698;2022-12-20T01:56:49;2.90;99.90
1570;DHT22;778;50.120;8.698;2022-12-20T01:59:19;2.90;99.90
1570;DHT22;778;50.120;8.698;2022-12-20T02:01:48;2.90;99.90
1570;DHT22;778;50.120;8.698;2022-12-20T02:04:17;2.90;99.90
1570;DHT22;778;50.120;8.698;2022-12-20T02:06:45;2.90;99.90
1570;DHT22;778;50.120;8.698;2022-12-20T02:09:15;2.90;99.90
1570;DHT22;778;50.120;8.698;2022-12-20T02:12:02;3.00;99.90
1570;DHT22;778;50.120;8.698;2022-12-20T02:14:46;3.00;99.90
1570;DHT22;778;50.120;8.698;2022-12-20T02:17:30;3.00;99.90
1570;DHT22;778;50.120;8.698;2022-12-20T02:20:28;3.00;99.90
1570;DHT22;778;50.120;8.698;2022-12-20T02:23:21;3.00;99.90
1570;DHT22;778;50.120;8.698;2022-12-20T02:26:31;3.00;99.90
1570;DHT22;778;50.120;8.698;2022-12-20T02:29:22;3.00;99.90
1570;DHT22;778;50.120;8.698;2022-12-20T02:32:01;3.00;99.90
1570;DHT22;778;50.120;8.698;2022-12-20T02:34:34;3.00;99.90
1570;DHT22;778;50.120;8.698;2022-12-20T02:37:03;3.00;99.90
1570;DHT22;778;50.120;8.698;2022-12-20T02:39:33;3.00;99.90
1570;DHT22;778;50.120;8.698;2022-12-20T02:42:05;3.00;99.90
1570;DHT22;778;50.120;8.698;2022-12-20T02:44:37;3.00;99.90
1570;DHT22;778;50.120;8.698;2022-12-20T02:47:31;3.00;99.90
1570;DHT22;778;50.120;8.698;2022-12-20T02:50:02;3.00;99.90
1570;DHT22;778;50.120;8.698;2022-12-20T02:52:32;3.00;99.90
1570;DHT22;778;50.120;8.698;2022-12-20T02:55:02;3.00;99.90
1570;DHT22;778;50.120;8.698;2022-12-20T02:57:40;3.00;99.90
1570;DHT22;778;50.120;8.698;2022-12-20T03:00:14;3.00;99.90
1570;DHT22;778;50.120;8.698;2022-12-20T03:02:46;3.00;99.90
1570;DHT22;778;50.120;8.698;2022-12-20T03:05:35;3.00;99.90
1570;DHT22;778;50.120;8.698;2022-12-20T03:08:13;3.00;99.90
1570;DHT22;778;50.120;8.698;2022-12-20T03:10:42;3.00;99.90
1570;DHT22;778;50.120;8.698;2022-12-20T03:13:10;3.00;99.90
1570;DHT22;778;50.120;8.698;2022-12-20T03:15:46;3.00;99.90
1570;DHT22;778;50.120;8.698;2022-12-20T03:18:16;3.00;99.90
1570;DHT22;778;50.120;8.698;2022-12-20T03:20:45;3.00;99.90
1570;DHT22;778;50.120;8.698;2022-12-20T03:23:13;3.00;99.90
1570;DHT22;778;50.120;8.698;2022-12-20T03:25:41;3.00;99.90
1570;DHT22;778;50.120;8.698;2022-12-20T03:28:15;3.00;99.90
1570;DHT22;778;50.120;8.698;2022-12-20T03:30:44;3.10;99.90
1570;DHT22;778;50.120;8.698;2022-12-20T03:33:13;3.10;99.90
1570;DHT22;778;50.120;8.698;2022-12-20T03:35:43;3.10;99.90
1570;DHT22;778;50.120;8.698;2022-12-20T03:38:13;3.10;99.90
1570;DHT22;778;50.120;8.698;2022-12-20T03:40:41;3.10;99.90
1570;DHT22;778;50.120;8.698;2022-12-20T03:43:12;3.10;99.90
1570;DHT22;778;50.120;8.698;2022-12-20T03:45:41;3.10;99.90
1570;DHT22;778;50.120;8.698;2022-12-20T03:48:09;3.20;99.90
1570;DHT22;778;50.120;8.698;2022-12-20T03:50:38;3.20;99.90
1570;DHT22;778;50.120;8.698;2022-12-20T03:53:09;3.20;99.90
1570;DHT22;778;50.120;8.698;2022-12-20T03:55:38;3.30;99.90
1570;DHT22;778;50.120;8.698;2022-12-20T03:58:11;3.20;99.90
1570;DHT22;778;50.120;8.698;2022-12-20T04:00:39;3.20;99.90
1570;DHT22;778;50.120;8.698;2022-12-20T04:03:28;3.30;99.90
1570;DHT22;778;50.120;8.698;2022-12-20T04:05:57;3.30;99.90
1570;DHT22;778;50.120;8.698;2022-12-20T04:08:27;3.30;99.90
1570;DHT22;778;50.120;8.698;2022-12-20T04:10:56;3.30;99.90
1570;DHT22;778;50.120;8.698;2022-12-20T04:13:56;3.30;99.90
1570;DHT22;778;50.120;8.698;2022-12-20T04:16:26;3.30;99.90
1570;DHT22;778;50.120;8.698;2022-12-20T04:18:56;3.30;99.90
1570;DHT22;778;50.120;8.698;2022-12-20T04:21:29;3.30;99.90
1570;DHT22;778;50.120;8.698;2022-12-20T04:24:01;3.30;99.90
1570;DHT22;778;50.120;8.698;2022-12-20T04:26:50;3.30;99.90
1570;DHT22;778;50.120;8.698;2022-12-20T04:29:18;3.30;99.90
1570;DHT22;778;50.120;8.698;2022-12-20T04:31:48;3.30;99.90
1570;DHT22;778;50.120;8.698;2022-12-20T04:34:17;3.40;99.90
1570;DHT22;778;50.120;8.698;2022-12-20T04:36:46;3.40;99.90
1570;DHT22;778;50.120;8.698;2022-12-20T04:39:24;3.40;99.90
1570;DHT22;778;50.120;8.698;2022-12-20T04:42:19;3.40;99.90
1570;DHT22;778;50.120;8.698;2022-12-20T04:44:49;3.40;99.90
1570;DHT22;778;50.120;8.698;2022-12-20T04:47:24;3.40;99.90
1570;DHT22;778;50.120;8.698;2022-12-20T04:49:53;3.40;99.90
1570;DHT22;778;50.120;8.698;2022-12-20T04:52:22;3.50;99.90
1570;DHT22;778;50.120;8.698;2022-12-20T04:55:15;3.40;99.90
1570;DHT22;778;50.120;8.698;2022-12-20T04:57:44;3.30;99.90
1570;DHT22;778;50.120;8.698;2022-12-20T05:00:14;3.30;99.90
1570;DHT22;778;50.120;8.698;2022-12-20T05:02:49;3.30;99.90
1570;DHT22;778;50.120;8.698;2022-12-20T05:05:20;3.30;99.90
1570;DHT22;778;50.120;8.698;2022-12-20T05:07:52;3.40;99.90
1570;DHT22;778;50.120;8.698;2022-12-20T05:10:24;3.40;99.90
1570;DHT22;778;50.120;8.698;2022-12-20T05:12:53;3.40;99.90
1570;DHT22;778;50.120;8.698;2022-12-20T05:15:31;3.40;99.90
1570;DHT22;778;50.120;8.698;2022-12-20T05:18:00;3.40;99.90
1570;DHT22;778;50.120;8.698;2022-12-20T05:20:39;3.50;99.90
1570;DHT22;778;50.120;8.698;2022-12-20T05:23:09;3.50;99.90
1570;DHT22;778;50.120;8.698;2022-12-20T05:26:08;3.50;99.90
1570;DHT22;778;50.120;8.698;2022-12-20T05:28:48;3.50;99.90
1570;DHT22;778;50.120;8.698;2022-12-20T05:31:16;3.60;99.90
1570;DHT22;778;50.120;8.698;2022-12-20T05:33:45;3.60;99.90
1570;DHT22;778;50.120;8.698;2022-12-20T05:36:15;3.60;99.90
1570;DHT22;778;50.120;8.698;2022-12-20T05:38:44;3.60;99.90
1570;DHT22;778;50.120;8.698;2022-12-20T05:41:17;3.60;99.90
1570;DHT22;778;50.120;8.698;2022-12-20T05:43:48;3.60;99.90
1570;DHT22;778;50.120;8.698;2022-12-20T05:46:17;3.60;99.90
1570;DHT22;778;50.120;8.698;2022-12-20T05:49:00;3.60;99.90
1570;DHT22;778;50.120;8.698;2022-12-20T05:51:29;3.60;99.90
1570;DHT22;778;50.120;8.698;2022-12-20T05:54:01;3.60;99.90
1570;DHT22;778;50.120;8.698;2022-12-20T05:56:50;3.60;99.90
1570;DHT22;778;50.120;8.698;2022-12-20T05:59:24;3.60;99.90
1570;DHT22;778;50.120;8.698;2022-12-20T06:01:52;3.60;99.90
1570;DHT22;778;50.120;8.698;2022-12-20T06:04:23;3.60;99.90
1570;DHT22;778;50.120;8.698;2022-12-20T06:06:51;3.60;99.90
1570;DHT22;778;50.120;8.698;2022-12-20T06:09:20;3.60;99.90
1570;DHT22;778;50.120;8.698;2022-12-20T06:12:12;3.60;99.90
1570;DHT22;778;50.120;8.698;2022-12-20T06:14:41;3.60;99.90
1570;DHT22;778;50.120;8.698;2022-12-20T06:17:12;3.60;99.90
1570;DHT22;778;50.120;8.698;2022-12-20T06:19:41;3.50;99.90
1570;DHT22;778;50.120;8.698;2022-12-20T06:22:13;3.50;99.90
1570;DHT22;778;50.120;8.698;2022-12-20T06:24:47;3.50;99.90
1570;DHT22;778;50.120;8.698;2022-12-20T06:27:20;3.50;99.90
1570;DHT22;778;50.120;8.698;2022-12-20T06:29:58;3.40;99.90
1570;DHT22;778;50.120;8.698;2022-12-20T06:32:33;3.40;99.90
1570;DHT22;778;50.120;8.698;2022-12-20T06:35:02;3.40;99.90
1570;DHT22;778;50.120;8.698;2022-12-20T06:37:31;3.40;99.90
1570;DHT22;778;50.120;8.698;2022-12-20T06:40:00;3.40;99.90
1570;DHT22;778;50.120;8.698;2022-12-20T06:42:30;3.40;99.90
1570;DHT22;778;50.120;8.698;2022-12-20T06:44:58;3.40;99.90
1570;DHT22;778;50.120;8.698;2022-12-20T06:47:27;3.50;99.90
1570;DHT22;778;50.120;8.698;2022-12-20T06:49:56;3.50;99.90
1570;DHT22;778;50.120;8.698;2022-12-20T06:52:26;3.50;99.90
1570;DHT22;778;50.120;8.698;2022-12-20T06:54:57;3.50;99.90
1570;DHT22;778;50.120;8.698;2022-12-20T06:57:25;3.60;99.90
1570;DHT22;778;50.120;8.698;2022-12-20T06:59:55;3.60;99.90
1570;DHT22;778;50.120;8.698;2022-12-20T07:02:24;3.60;99.90
1570;DHT22;778;50.120;8.698;2022-12-20T07:04:54;3.60;99.90
1570;DHT22;778;50.120;8.698;2022-12-20T07:07:22;3.60;99.90
1570;DHT22;778;50.120;8.698;2022-12-20T07:09:51;3.70;99.90
1570;DHT22;778;50.120;8.698;2022-12-20T07:12:19;3.70;99.90
1570;DHT22;778;50.120;8.698;2022-12-20T07:14:48;3.70;99.90
1570;DHT22;778;50.120;8.698;2022-12-20T07:17:19;3.80;99.90
1570;DHT22;778;50.120;8.698;2022-12-20T07:19:47;3.80;99.90
1570;DHT22;778;50.120;8.698;2022-12-20T07:22:17;3.80;99.90
1570;DHT22;778;50.120;8.698;2022-12-20T07:24:45;3.80;99.90
1570;DHT22;778;50.120;8.698;2022-12-20T07:27:14;3.90;99.90
1570;DHT22;778;50.120;8.698;2022-12-20T07:29:43;3.90;99.90
1570;DHT22;778;50.120;8.698;2022-12-20T07:32:11;3.80;99.90
1570;DHT22;778;50.120;8.698;2022-12-20T07:34:42;3.80;99.90
1570;DHT22;778;50.120;8.698;2022-12-20T07:37:10;3.80;99.90
1570;DHT22;778;50.120;8.698;2022-12-20T07:39:38;3.80;99.90
1570;DHT22;778;50.120;8.698;2022-12-20T07:42:08;3.80;99.90
1570;DHT22;778;50.120;8.698;2022-12-20T07:44:41;3.90;99.90
1570;DHT22;778;50.120;8.698;2022-12-20T07:47:09;3.90;99.90
1570;DHT22;778;50.120;8.698;2022-12-20T07:49:38;3.90;99.90
1570;DHT22;778;50.120;8.698;2022-12-20T07:52:10;3.90;99.90
1570;DHT22;778;50.120;8.698;2022-12-20T07:54:42;3.90;99.90
1570;DHT22;778;50.120;8.698;2022-12-20T07:57:15;4.00;99.90
1570;DHT22;778;50.120;8.698;2022-12-20T07:59:49;4.00;99.90
1570;DHT22;778;50.120;8.698;2022-12-20T08:02:21;4.00;99.90
1570;DHT22;778;50.120;8.698;2022-12-20T08:04:53;4.00;99.90
1570;DHT22;778;50.120;8.698;2022-12-20T08:07:24;4.00;99.90
1570;DHT22;778;50.120;8.698;2022-12-20T08:09:54;4.10;99.90
1570;DHT22;778;50.120;8.698;2022-12-20T08:12:23;4.10;99.90
1570;DHT22;778;50.120;8.698;2022-12-20T08:14:52;4.10;99.90
1570;DHT22;778;50.120;8.698;2022-12-20T08:17:22;4.10;99.90
1570;DHT22;778;50.120;8.698;2022-12-20T08:19:51;4.10;99.90
1570;DHT22;778;50.120;8.698;2022-12-20T08:22:19;4.20;99.90
1570;DHT22;778;50.120;8.698;2022-12-20T08:24:50;4.20;99.90
1570;DHT22;778;50.120;8.698;2022-12-20T08:27:18;4.20;99.90
1570;DHT22;778;50.120;8.698;2022-12-20T08:29:47;4.20;99.90
1570;DHT22;778;50.120;8.698;2022-12-20T08:32:15;4.30;99.90
1570;DHT22;778;50.120;8.698;2022-12-20T08:34:44;4.40;99.90
1570;DHT22;778;50.120;8.698;2022-12-20T08:37:15;4.40;99.90
1570;DHT22;778;50.120;8.698;2022-12-20T08:39:44;4.50;99.90
1570;DHT22;778;50.120;8.698;2022-12-20T08:42:14;4.60;99.90
1570;DHT22;778;50.120;8.698;2022-12-20T08:44:42;4.70;99.90
1570;DHT22;778;50.120;8.698;2022-12-20T08:47:10;4.70;99.90
1570;DHT22;778;50.120;8.698;2022-12-20T08:49:39;4.70;99.90
1570;DHT22;778;50.120;8.698;2022-12-20T08:52:13;4.80;99.90
1570;DHT22;778;50.120;8.698;2022-12-20T08:54:42;4.90;99.90
1570;DHT22;778;50.120;8.698;2022-12-20T08:57:10;4.90;99.90
1570;DHT22;778;50.120;8.698;2022-12-20T08:59:40;5.20;99.90
1570;DHT22;778;50.120;8.698;2022-12-20T09:02:09;5.30;99.90
1570;DHT22;778;50.120;8.698;2022-12-20T09:04:38;5.60;99.90
1570;DHT22;778;50.120;8.698;2022-12-20T09:07:06;5.60;99.90
1570;DHT22;778;50.120;8.698;2022-12-20T09:09:34;5.60;99.90
1570;DHT22;778;50.120;8.698;2022-12-20T09:12:03;5.80;99.90
1570;DHT22;778;50.120;8.698;2022-12-20T09:14:33;5.70;99.90
1570;DHT22;778;50.120;8.698;2022-12-20T09:17:03;5.80;99.90
1570;DHT22;778;50.120;8.698;2022-12-20T09:19:32;5.90;99.90
1570;DHT22;778;50.120;8.698;2022-12-20T09:22:00;6.00;99.90
1570;DHT22;778;50.120;8.698;2022-12-20T09:24:30;5.70;99.90
1570;DHT22;778;50.120;8.698;2022-12-20T09:26:58;5.60;99.90
1570;DHT22;778;50.120;8.698;2022-12-20T09:29:27;5.50;99.90
1570;DHT22;778;50.120;8.698;2022-12-20T09:32:03;5.40;99.90
1570;DHT22;778;50.120;8.698;2022-12-20T09:34:31;5.40;99.90
1570;DHT22;778;50.120;8.698;2022-12-20T09:37:00;5.40;99.90
1570;DHT22;778;50.120;8.698;2022-12-20T09:39:28;5.30;99.90
1570;DHT22;778;50.120;8.698;2022-12-20T09:41:57;5.30;99.90
1570;DHT22;778;50.120;8.698;2022-12-20T09:44:29;5.30;99.90
1570;DHT22;778;50.120;8.698;2022-12-20T09:47:02;5.30;99.90
1570;DHT22;778;50.120;8.698;2022-12-20T09:49:40;5.30;99.90
1570;DHT22;778;50.120;8.698;2022-12-20T09:52:32;5.30;99.90
1570;DHT22;778;50.120;8.698;2022-12-20T09:55:18;5.30;99.90
1570;DHT22;778;50.120;8.698;2022-12-20T09:57:59;5.30;99.90
1570;DHT22;778;50.120;8.698;2022-12-20T10:00:35;5.30;99.90
1570;DHT22;778;50.120;8.698;2022-12-20T10:03:12;5.30;99.90
1570;DHT22;778;50.120;8.698;2022-12-20T10:05:50;5.30;99.90
1570;DHT22;778;50.120;8.698;2022-12-20T10:08:31;5.30;99.90
1570;DHT22;778;50.120;8.698;2022-12-20T10:11:11;5.40;99.90
1570;DHT22;778;50.120;8.698;2022-12-20T10:13:54;5.40;99.90
1570;DHT22;778;50.120;8.698;2022-12-20T10:16:36;5.40;99.90
1570;DHT22;778;50.120;8.698;2022-12-20T10:19:19;5.40;99.90
1570;DHT22;778;50.120;8.698;2022-12-20T10:21:59;5.40;99.90
1570;DHT22;778;50.120;8.698;2022-12-20T10:24:34;5.40;99.90
1570;DHT22;778;50.120;8.698;2022-12-20T10:27:11;5.40;99.90
1570;DHT22;778;50.120;8.698;2022-12-20T10:29:42;5.40;99.90
1570;DHT22;778;50.120;8.698;2022-12-20T10:32:14;5.40;99.90
1570;DHT22;778;50.120;8.698;2022-12-20T10:34:56;5.40;99.90
1570;DHT22;778;50.120;8.698;2022-12-20T10:37:28;5.40;99.90
1570;DHT22;778;50.120;8.698;2022-12-20T10:39:57;5.40;99.90
1570;DHT22;778;50.120;8.698;2022-12-20T10:42:36;5.40;99.90
1570;DHT22;778;50.120;8.698;2022-12-20T10:45:26;5.40;99.90
1570;DHT22;778;50.120;8.698;2022-12-20T10:48:04;5.40;99.90
1570;DHT22;778;50.120;8.698;2022-12-20T10:50:36;5.40;99.90
1570;DHT22;778;50.120;8.698;2022-12-20T10:53:20;5.40;99.90
1570;DHT22;778;50.120;8.698;2022-12-20T10:55:52;5.40;99.90
1570;DHT22;778;50.120;8.698;2022-12-20T10:58:31;5.40;99.90
1570;DHT22;778;50.120;8.698;2022-12-20T11:01:11;5.50;99.90
1570;DHT22;778;50.120;8.698;2022-12-20T11:03:56;5.50;99.90
1570;DHT22;778;50.120;8.698;2022-12-20T11:06:39;5.60;99.90
1570;DHT22;778;50.120;8.698;2022-12-20T11:09:22;5.60;99.90
1570;DHT22;778;50.120;8.698;2022-12-20T11:12:02;5.60;99.90
1570;DHT22;778;50.120;8.698;2022-12-20T11:14:33;5.60;99.90
1570;DHT22;778;50.120;8.698;2022-12-20T11:17:24;5.70;99.90
1570;DHT22;778;50.120;8.698;2022-12-20T11:20:24;5.70;99.90
1570;DHT22;778;50.120;8.698;2022-12-20T11:23:10;5.70;99.90
1570;DHT22;778;50.120;8.698;2022-12-20T11:25:56;5.70;99.90
1570;DHT22;778;50.120;8.698;2022-12-20T11:28:43;5.80;99.90
1570;DHT22;778;50.120;8.698;2022-12-20T11:31:22;5.80;99.90
1570;DHT22;778;50.120;8.698;2022-12-20T11:34:03;5.80;99.90
1570;DHT22;778;50.120;8.698;2022-12-20T11:36:53;5.80;99.90
1570;DHT22;778;50.120;8.698;2022-12-20T11:39:39;5.80;99.90
1570;DHT22;778;50.120;8.698;2022-12-20T11:42:24;5.80;99.90
1570;DHT22;778;50.120;8.698;2022-12-20T11:45:04;5.90;99.90
1570;DHT22;778;50.120;8.698;2022-12-20T11:47:51;5.90;99.90
1570;DHT22;778;50.120;8.698;2022-12-20T11:50:35;5.90;99.90
1570;DHT22;778;50.120;8.698;2022-12-20T11:53:15;6.00;99.90
1570;DHT22;778;50.120;8.698;2022-12-20T11:55:49;6.00;99.90
1570;DHT22;778;50.120;8.698;2022-12-20T11:58:24;6.00;99.90
1570;DHT22;778;50.120;8.698;2022-12-20T12:00:58;6.00;99.90
1570;DHT22;778;50.120;8.698;2022-12-20T12:03:33;6.00;99.90
1570;DHT22;778;50.120;8.698;2022-12-20T12:06:06;6.00;99.90
1570;DHT22;778;50.120;8.698;2022-12-20T12:08:42;6.00;99.90
1570;DHT22;778;50.120;8.698;2022-12-20T12:11:18;5.90;99.90
1570;DHT22;778;50.120;8.698;2022-12-20T12:14:16;5.90;99.90
1570;DHT22;778;50.120;8.698;2022-12-20T12:16:57;5.90;99.90
1570;DHT22;778;50.120;8.698;2022-12-20T12:19:30;5.90;99.90
1570;DHT22;778;50.120;8.698;2022-12-20T12:22:04;5.90;99.90
1570;DHT22;778;50.120;8.698;2022-12-20T12:24:39;5.90;99.90
1570;DHT22;778;50.120;8.698;2022-12-20T12:27:17;5.90;99.90
1570;DHT22;778;50.120;8.698;2022-12-20T12:29:48;5.90;99.90
1570;DHT22;778;50.120;8.698;2022-12-20T12:32:23;6.00;99.90
1570;DHT22;778;50.120;8.698;2022-12-20T12:35:22;6.00;99.90
1570;DHT22;778;50.120;8.698;2022-12-20T12:38:14;6.00;99.90
1570;DHT22;778;50.120;8.698;2022-12-20T12:41:21;6.10;99.90
1570;DHT22;778;50.120;8.698;2022-12-20T12:44:33;6.10;99.90
1570;DHT22;778;50.120;8.698;2022-12-20T12:47:13;6.20;99.90
1570;DHT22;778;50.120;8.698;2022-12-20T12:49:46;6.10;99.90
1570;DHT22;778;50.120;8.698;2022-12-20T12:52:28;6.10;99.90
1570;DHT22;778;50.120;8.698;2022-12-20T12:55:04;6.20;99.90
1570;DHT22;778;50.120;8.698;2022-12-20T12:58:13;6.30;99.90
1570;DHT22;778;50.120;8.698;2022-12-20T13:01:49;6.30;99.90
1570;DHT22;778;50.120;8.698;2022-12-20T13:04:26;6.30;99.90
1570;DHT22;778;50.120;8.698;2022-12-20T13:06:59;6.30;99.90
1570;DHT22;778;50.120;8.698;2022-12-20T13:09:38;6.30;99.90
1570;DHT22;778;50.120;8.698;2022-12-20T13:15:51;6.30;99.90
1570;DHT22;778;50.120;8.698;2022-12-20T13:18:34;6.20;99.90
1570;DHT22;778;50.120;8.698;2022-12-20T13:21:31;6.30;99.90
1570;DHT22;778;50.120;8.698;2022-12-20T13:24:34;6.30;99.90
1570;DHT22;778;50.120;8.698;2022-12-20T13:27:25;6.30;99.90
1570;DHT22;778;50.120;8.698;2022-12-20T13:33:23;6.30;99.90
1570;DHT22;778;50.120;8.698;2022-12-20T13:36:03;6.30;99.90
1570;DHT22;778;50.120;8.698;2022-12-20T13:38:58;6.30;99.90
1570;DHT22;778;50.120;8.698;2022-12-20T13:41:32;6.30;99.90
1570;DHT22;778;50.120;8.698;2022-12-20T13:47:30;6.40;99.90
1570;DHT22;778;50.120;8.698;2022-12-20T13:50:30;6.40;99.90
1570;DHT22;778;50.120;8.698;2022-12-20T13:53:02;6.40;99.90
1570;DHT22;778;50.120;8.698;2022-12-20T13:55:35;6.50;99.90
1570;DHT22;778;50.120;8.698;2022-12-20T13:58:13;6.50;99.90
1570;DHT22;778;50.120;8.698;2022-12-20T14:00:44;6.50;99.90
1570;DHT22;778;50.120;8.698;2022-12-20T14:03:21;6.50;99.90
1570;DHT22;778;50.120;8.698;2022-12-20T14:05:56;6.50;99.90
1570;DHT22;778;50.120;8.698;2022-12-20T14:08:29;6.60;99.90
1570;DHT22;778;50.120;8.698;2022-12-20T14:11:09;6.60;99.90
1570;DHT22;778;50.120;8.698;2022-12-20T14:13:39;6.60;99.90
1570;DHT22;778;50.120;8.698;2022-12-20T14:16:11;6.60;99.90
1570;DHT22;778;50.120;8.698;2022-12-20T14:18:47;6.60;99.90
1570;DHT22;778;50.120;8.698;2022-12-20T14:21:17;6.60;99.90
1570;DHT22;778;50.120;8.698;2022-12-20T14:23:48;6.60;99.90
1570;DHT22;778;50.120;8.698;2022-12-20T14:26:23;6.60;99.90
1570;DHT22;778;50.120;8.698;2022-12-20T14:28:54;6.60;99.90
1570;DHT22;778;50.120;8.698;2022-12-20T14:31:26;6.60;99.90
1570;DHT22;778;50.120;8.698;2022-12-20T14:34:04;6.60;99.90
1570;DHT22;778;50.120;8.698;2022-12-20T14:36:33;6.60;99.90
1570;DHT22;778;50.120;8.698;2022-12-20T14:39:22;6.60;99.90
1570;DHT22;778;50.120;8.698;2022-12-20T14:41:56;6.50;99.90
1570;DHT22;778;50.120;8.698;2022-12-20T14:44:27;6.50;99.90
1570;DHT22;778;50.120;8.698;2022-12-20T14:46:58;6.50;99.90
1570;DHT22;778;50.120;8.698;2022-12-20T14:49:28;6.50;99.90
1570;DHT22;778;50.120;8.698;2022-12-20T14:52:11;6.50;99.90
1570;DHT22;778;50.120;8.698;2022-12-20T14:54:45;6.50;99.90
1570;DHT22;778;50.120;8.698;2022-12-20T14:57:42;6.50;99.90
1570;DHT22;778;50.120;8.698;2022-12-20T15:00:21;6.50;99.90
1570;DHT22;778;50.120;8.698;2022-12-20T15:03:01;6.50;99.90
1570;DHT22;778;50.120;8.698;2022-12-20T15:05:42;6.50;99.90
1570;DHT22;778;50.120;8.698;2022-12-20T15:08:15;6.50;99.90
1570;DHT22;778;50.120;8.698;2022-12-20T15:11:13;6.50;99.90
1570;DHT22;778;50.120;8.698;2022-12-20T15:13:52;6.50;99.90
1570;DHT22;778;50.120;8.698;2022-12-20T15:16:23;6.50;99.90
1570;DHT22;778;50.120;8.698;2022-12-20T15:18:54;6.50;99.90
1570;DHT22;778;50.120;8.698;2022-12-20T15:21:27;6.50;99.90
1570;DHT22;778;50.120;8.698;2022-12-20T15:23:59;6.50;99.90
1570;DHT22;778;50.120;8.698;2022-12-20T15:26:30;6.50;99.90
1570;DHT22;778;50.120;8.698;2022-12-20T15:28:58;6.50;99.90
1570;DHT22;778;50.120;8.698;2022-12-20T15:31:28;6.50;99.90
1570;DHT22;778;50.120;8.698;2022-12-20T15:34:00;6.40;99.90
1570;DHT22;778;50.120;8.698;2022-12-20T15:36:31;6.40;99.90
1570;DHT22;778;50.120;8.698;2022-12-20T15:38:59;6.40;99.90
1570;DHT22;778;50.120;8.698;2022-12-20T15:41:43;6.40;99.90
1570;DHT22;778;50.120;8.698;2022-12-20T15:44:15;6.40;99.90
1570;DHT22;778;50.120;8.698;2022-12-20T15:46:45;6.40;99.90
1570;DHT22;778;50.120;8.698;2022-12-20T15:49:14;6.40;99.90
1570;DHT22;778;50.120;8.698;2022-12-20T15:51:44;6.30;99.90
1570;DHT22;778;50.120;8.698;2022-12-20T15:54:20;6.30;99.90
1570;DHT22;778;50.120;8.698;2022-12-20T15:56:55;6.30;99.90
1570;DHT22;778;50.120;8.698;2022-12-20T15:59:25;6.30;99.90
1570;DHT22;778;50.120;8.698;2022-12-20T16:02:20;6.30;99.90
1570;DHT22;778;50.120;8.698;2022-12-20T16:04:50;6.30;99.90
1570;DHT22;778;50.120;8.698;2022-12-20T16:07:19;6.30;99.90
1570;DHT22;778;50.120;8.698;2022-12-20T16:09:47;6.20;99.90
1570;DHT22;778;50.120;8.698;2022-12-20T16:12:20;6.20;99.90
1570;DHT22;778;50.120;8.698;2022-12-20T16:14:49;6.20;99.90
1570;DHT22;778;50.120;8.698;2022-12-20T16:17:18;6.20;99.90
1570;DHT22;778;50.120;8.698;2022-12-20T16:19:46;6.20;99.90
1570;DHT22;778;50.120;8.698;2022-12-20T16:22:16;6.20;99.90
1570;DHT22;778;50.120;8.698;2022-12-20T16:24:48;6.10;99.90
1570;DHT22;778;50.120;8.698;2022-12-20T16:27:19;6.10;99.90
1570;DHT22;778;50.120;8.698;2022-12-20T16:29:47;6.20;99.90
1570;DHT22;778;50.120;8.698;2022-12-20T16:32:17;6.10;99.90
1570;DHT22;778;50.120;8.698;2022-12-20T16:34:48;6.20;99.90
1570;DHT22;778;50.120;8.698;2022-12-20T16:37:18;6.20;99.90
1570;DHT22;778;50.120;8.698;2022-12-20T16:39:46;6.20;99.90
1570;DHT22;778;50.120;8.698;2022-12-20T16:42:16;6.20;99.90
1570;DHT22;778;50.120;8.698;2022-12-20T16:44:50;6.10;99.90
1570;DHT22;778;50.120;8.698;2022-12-20T16:47:20;6.20;99.90
1570;DHT22;778;50.120;8.698;2022-12-20T16:49:49;6.10;99.90
1570;DHT22;778;50.120;8.698;2022-12-20T16:52:20;6.20;99.90
1570;DHT22;778;50.120;8.698;2022-12-20T16:54:49;6.20;99.90
1570;DHT22;778;50.120;8.698;2022-12-20T16:57:19;6.20;99.90
1570;DHT22;778;50.120;8.698;2022-12-20T16:59:48;6.20;99.90
1570;DHT22;778;50.120;8.698;2022-12-20T17:02:22;6.20;99.90
1570;DHT22;778;50.120;8.698;2022-12-20T17:04:53;6.20;99.90
1570;DHT22;778;50.120;8.698;2022-12-20T17:07:22;6.20;99.90
1570;DHT22;778;50.120;8.698;2022-12-20T17:09:51;6.20;99.90
1570;DHT22;778;50.120;8.698;2022-12-20T17:12:21;6.20;99.90
1570;DHT22;778;50.120;8.698;2022-12-20T17:14:50;6.20;99.90
1570;DHT22;778;50.120;8.698;2022-12-20T17:17:19;6.20;99.90
1570;DHT22;778;50.120;8.698;2022-12-20T17:19:47;6.20;99.90
1570;DHT22;778;50.120;8.698;2022-12-20T17:22:17;6.20;99.90
1570;DHT22;778;50.120;8.698;2022-12-20T17:25:03;6.20;99.90
1570;DHT22;778;50.120;8.698;2022-12-20T17:27:33;6.20;99.90
1570;DHT22;778;50.120;8.698;2022-12-20T17:30:02;6.20;99.90
1570;DHT22;778;50.120;8.698;2022-12-20T17:32:31;6.20;99.90